Terminal Aerodrome Forecast
Issued by NWS Corpus Christi, TX

Home | Current Version | Previous Version | Text Only | Print | Product List | Glossary On
Versions: 1 2 3 4 5 6 7 8 9 10 11 12 13 14 15 16 17 18 19 20
000
FTUS44 KCRP 290900 AAB
TAFVCT
TAF AMD
KVCT 290941Z 2910/3006 VRB03KT P6SM SKC
      TEMPO 2911/2913 6SM BR
     FM300400 14004KT 3SM BR FEW001 SCT050=

USA.gov is the U.S. government's official web portal to all federal, state and local government web resources and services.